createdAt,value
2024-03-05T00:01:04.041Z,156.9
2024-03-05T00:02:18.382Z,154.5
2024-03-05T00:03:31.691Z,164.7
2024-03-05T00:04:45.984Z,158.7
2024-03-05T00:06:00.277Z,156.4
2024-03-05T00:07:14.570Z,162.3
2024-03-05T00:08:28.863Z,154.9
2024-03-05T00:09:43.156Z,136.8
2024-03-05T00:10:57.448Z,154.5
2024-03-05T00:12:11.741Z,150.3
2024-03-05T00:13:26.034Z,145
2024-03-05T00:14:40.327Z,149.7
2024-03-05T00:15:54.620Z,142.8
2024-03-05T00:17:08.913Z,133
2024-03-05T00:18:23.206Z,146.9
2024-03-05T00:19:36.515Z,141.6
2024-03-05T00:20:50.765Z,143.7
2024-03-05T00:22:05.101Z,147.5
2024-03-05T00:23:19.393Z,141.9
2024-03-05T00:24:33.639Z,148.2
2024-03-05T00:25:47.980Z,145.7
2024-03-05T00:27:02.272Z,138.6
2024-03-05T00:28:16.521Z,139
2024-03-05T00:29:30.858Z,145.9
2024-03-05T00:30:45.151Z,140.8
2024-03-05T00:31:59.444Z,136.8
2024-03-05T00:33:13.737Z,143.9
2024-03-05T00:34:28.030Z,142.1
2024-03-05T00:35:41.288Z,134.3
2024-03-05T00:36:55.599Z,138.9
2024-03-05T00:38:09.925Z,145.1
2024-03-05T00:39:24.218Z,133.8
2024-03-05T00:40:38.511Z,135.3
2024-03-05T00:41:52.804Z,146.6
2024-03-05T00:43:07.057Z,133.3
2024-03-05T00:44:21.390Z,134.6
2024-03-05T00:45:35.683Z,139.6
2024-03-05T00:46:49.976Z,143.5
2024-03-05T00:48:04.269Z,138.3
2024-03-05T00:49:18.562Z,150
2024-03-05T00:50:32.855Z,141.6
2024-03-05T00:51:46.163Z,145.9
2024-03-05T00:53:00.456Z,148.2
2024-03-05T00:54:14.749Z,147.3
2024-03-05T00:55:29.042Z,154.8
2024-03-05T00:56:43.335Z,144.4
2024-03-05T00:57:57.628Z,153.1
2024-03-05T00:59:11.921Z,147.2
2024-03-05T01:00:26.214Z,130
2024-03-05T01:01:40.507Z,124.7
2024-03-05T01:02:54.800Z,130.2
2024-03-05T01:04:09.093Z,126.1
2024-03-05T01:05:23.386Z,131.1
2024-03-05T01:06:37.679Z,120.6
2024-03-05T01:07:50.988Z,133.4
2024-03-05T01:09:05.282Z,134.1
2024-03-05T01:10:19.575Z,163.1
2024-03-05T01:11:33.868Z,194.1
2024-03-05T01:12:48.123Z,189
2024-03-05T01:14:02.454Z,204.8
2024-03-05T01:15:16.705Z,206
2024-03-05T01:16:31.041Z,151.2
2024-03-05T01:17:45.334Z,145.5
2024-03-05T01:18:59.627Z,139.2
2024-03-05T01:20:13.873Z,139.7
2024-03-05T01:21:28.213Z,137.6
2024-03-05T01:22:42.506Z,137.9
2024-03-05T01:23:55.815Z,164.9
2024-03-05T01:25:10.108Z,204
2024-03-05T01:26:24.401Z,211.4
2024-03-05T01:27:38.694Z,233.3
2024-03-05T01:28:52.987Z,224.5
2024-03-05T01:30:07.280Z,217.8
2024-03-05T01:31:21.573Z,236.3
2024-03-05T01:32:35.866Z,215
2024-03-05T01:33:50.159Z,227.9
2024-03-05T01:35:04.452Z,218.8
2024-03-05T01:36:18.705Z,244.5
2024-03-05T01:37:33.038Z,226.2
2024-03-05T01:38:47.292Z,212
2024-03-05T01:40:00.641Z,231.8
2024-03-05T01:41:14.890Z,229.3
2024-03-05T01:42:29.228Z,241.2
2024-03-05T01:43:43.522Z,218.6
2024-03-05T01:44:57.815Z,232.7
2024-03-05T01:46:12.108Z,234.9
2024-03-05T01:47:26.402Z,258.4
2024-03-05T01:48:40.695Z,257.8
2024-03-05T01:49:54.988Z,230.7
2024-03-05T01:51:09.233Z,242.9
2024-03-05T01:52:23.576Z,242.1
2024-03-05T01:53:37.869Z,247
2024-03-05T01:54:52.163Z,245.2
2024-03-05T01:56:05.472Z,257.5
2024-03-05T01:57:19.765Z,248.1
2024-03-05T01:58:34.005Z,266.6
2024-03-05T01:59:48.352Z,247.4
2024-03-05T02:01:02.645Z,240.1
2024-03-05T02:02:16.938Z,284.3
2024-03-05T02:03:31.179Z,280.3
2024-03-05T02:04:45.476Z,281.9
2024-03-05T02:05:59.817Z,290.1
2024-03-05T02:07:14.110Z,281.3
2024-03-05T02:08:28.403Z,302.9
2024-03-05T02:09:42.696Z,302.7
2024-03-05T02:10:56.989Z,272.7
2024-03-05T02:12:10.260Z,255.5
2024-03-05T02:13:24.570Z,261.1
2024-03-05T02:14:38.885Z,242.5
2024-03-05T02:15:53.165Z,224.5
2024-03-05T02:17:07.471Z,230.2
2024-03-05T02:18:21.763Z,250.2
2024-03-05T02:19:36.056Z,256
2024-03-05T02:20:50.349Z,251
2024-03-05T02:22:04.642Z,254.3
2024-03-05T02:23:18.935Z,257.6
2024-03-05T02:24:33.228Z,285.2
2024-03-05T02:25:47.521Z,254.9
2024-03-05T02:27:01.814Z,263.1
2024-03-05T02:28:15.102Z,286.8
2024-03-05T02:29:29.416Z,252
2024-03-05T02:30:43.709Z,295.8
2024-03-05T02:31:58.002Z,276
2024-03-05T02:33:12.296Z,297.7
2024-03-05T02:34:26.589Z,267.2
2024-03-05T02:35:40.882Z,290.1
2024-03-05T02:36:55.175Z,265.3
2024-03-05T02:38:09.468Z,181.1
2024-03-05T02:39:23.761Z,170.3
2024-03-05T02:40:38.029Z,182.6
2024-03-05T02:41:52.346Z,175.4
2024-03-05T02:43:06.641Z,172.1
2024-03-05T02:44:19.950Z,179.3
2024-03-05T02:45:34.243Z,198.3
2024-03-05T02:46:48.536Z,264.8
2024-03-05T02:48:02.828Z,246.6
2024-03-05T02:49:17.121Z,286.1
2024-03-05T02:50:31.414Z,307.2
2024-03-05T02:51:45.707Z,308.3
2024-03-05T02:52:59.988Z,285.7
2024-03-05T02:54:14.293Z,330.5
2024-03-05T02:55:28.586Z,302.7
2024-03-05T02:56:42.869Z,375.1
2024-03-05T02:57:57.172Z,340.8
2024-03-05T02:59:11.464Z,350.4
2024-03-05T03:00:24.774Z,344
2024-03-05T03:01:39.058Z,359.3
2024-03-05T03:02:53.359Z,415.7
2024-03-05T03:04:07.652Z,413.2
2024-03-05T03:05:21.937Z,386
2024-03-05T03:06:36.238Z,402.6
2024-03-05T03:07:50.531Z,411.8
2024-03-05T03:09:04.824Z,373.3
2024-03-05T03:10:19.117Z,446.3
2024-03-05T03:11:33.398Z,394.5
2024-03-05T03:12:47.702Z,385.1
2024-03-05T03:14:01.995Z,351
2024-03-05T03:15:16.288Z,343.7
2024-03-05T03:16:29.597Z,402.7
2024-03-05T03:17:43.881Z,417.3
2024-03-05T03:18:58.175Z,384.8
2024-03-05T03:20:12.476Z,404
2024-03-05T03:21:26.769Z,326.5
2024-03-05T03:22:41.062Z,395.9
2024-03-05T03:23:55.355Z,466.8
2024-03-05T03:25:09.648Z,445.6
2024-03-05T03:26:23.941Z,433.3
2024-03-05T03:27:38.234Z,331.6
2024-03-05T03:28:52.528Z,299.6
2024-03-05T03:30:06.800Z,325
2024-03-05T03:31:21.114Z,302.4
2024-03-05T03:32:34.423Z,379.9
2024-03-05T03:33:48.701Z,365.1
2024-03-05T03:35:03.008Z,392.7
2024-03-05T03:36:17.301Z,309.4
2024-03-05T03:37:31.594Z,311.1
2024-03-05T03:38:45.887Z,376
2024-03-05T03:40:00.180Z,416.8
2024-03-05T03:41:14.473Z,396.7
2024-03-05T03:42:28.747Z,402.7
2024-03-05T03:43:43.059Z,378.1
2024-03-05T03:44:57.352Z,447.1
2024-03-05T03:46:11.645Z,290
2024-03-05T03:47:25.938Z,538.7
2024-03-05T03:48:39.247Z,518
2024-03-05T03:49:53.540Z,436.5
2024-03-05T03:51:07.834Z,551.4
2024-03-05T03:52:22.127Z,324.7
2024-03-05T03:53:36.419Z,268.7
2024-03-05T03:54:50.705Z,245.2
2024-03-05T03:56:04.026Z,242
2024-03-05T03:57:18.319Z,241.8
2024-03-05T03:58:32.612Z,273.2
2024-03-05T03:59:46.905Z,276.6
2024-03-05T04:01:01.198Z,481.2
2024-03-05T04:02:15.491Z,505.9
2024-03-05T04:03:29.784Z,583.8
2024-03-05T04:04:44.077Z,536.2
2024-03-05T04:05:58.369Z,598.7
2024-03-05T04:07:12.662Z,590.7
2024-03-05T04:08:26.955Z,570.6
2024-03-05T04:09:41.248Z,586.4
2024-03-05T04:10:55.541Z,323.6
2024-03-05T04:12:09.834Z,481.1
2024-03-05T04:13:23.143Z,497.2
2024-03-05T04:14:37.436Z,665.6
2024-03-05T04:15:51.729Z,342.2
2024-03-05T04:17:06.022Z,501.6
2024-03-05T04:18:20.305Z,518.8
2024-03-05T04:19:34.608Z,483.2
2024-03-05T04:20:48.901Z,485.3
2024-03-05T04:22:03.194Z,498.5
2024-03-05T04:23:17.488Z,491.1
2024-03-05T04:24:31.780Z,468.7
2024-03-05T04:25:46.073Z,483.8
2024-03-05T04:27:00.367Z,486.3
2024-03-05T04:28:14.659Z,481.1
2024-03-05T04:29:27.969Z,485.5
2024-03-05T04:30:42.262Z,460.8
2024-03-05T04:31:56.555Z,483.8
2024-03-05T04:33:10.848Z,475.8
2024-03-05T04:34:25.142Z,494.3
2024-03-05T04:35:39.434Z,473.8
2024-03-05T04:36:53.727Z,583.4
2024-03-05T04:38:08.020Z,605
2024-03-05T04:39:22.313Z,522.7
2024-03-05T04:40:36.606Z,654.6
2024-03-05T04:41:50.899Z,579.3
2024-03-05T04:43:05.192Z,361.9
2024-03-05T04:44:19.485Z,323.4
2024-03-05T04:45:32.794Z,523.1
2024-03-05T04:46:47.088Z,578.4
2024-03-05T04:48:01.372Z,589.9
2024-03-05T04:49:15.674Z,525.2
2024-03-05T04:50:29.967Z,590.3
2024-03-05T04:51:44.259Z,530.3
2024-03-05T04:52:58.552Z,478.7
2024-03-05T04:54:12.833Z,469.2
2024-03-05T04:55:27.139Z,493.4
2024-03-05T04:56:41.428Z,450.5
2024-03-05T04:57:55.718Z,538.1
2024-03-05T04:59:10.017Z,446.3
2024-03-05T05:00:24.310Z,577.5
2024-03-05T05:01:37.620Z,581.7
2024-03-05T05:02:51.907Z,461.3
2024-03-05T05:04:06.206Z,464
2024-03-05T05:05:20.500Z,477.4
2024-03-05T05:06:34.793Z,327.5
2024-03-05T05:07:49.085Z,254.2
2024-03-05T05:09:03.378Z,267.1
2024-03-05T05:10:17.671Z,244.1
2024-03-05T05:11:31.964Z,247.2
2024-03-05T05:12:46.257Z,412.2
2024-03-05T05:14:00.550Z,490.5
2024-03-05T05:15:14.844Z,614.3
2024-03-05T05:16:29.137Z,555
2024-03-05T05:17:42.445Z,640.4
2024-03-05T05:18:56.738Z,512.6
2024-03-05T05:20:11.031Z,612.4
2024-03-05T05:21:25.304Z,443.3
2024-03-05T05:22:39.617Z,317.2
2024-03-05T05:23:53.910Z,363.2
2024-03-05T05:25:08.203Z,326.7
2024-03-05T05:26:22.496Z,380.2
2024-03-05T05:27:36.790Z,342.1
2024-03-05T05:28:51.083Z,341.3
2024-03-05T05:30:05.376Z,349.8
2024-03-05T05:31:19.669Z,393.6
2024-03-05T05:32:33.908Z,396
2024-03-05T05:33:47.217Z,332.3
2024-03-05T05:35:01.467Z,287.6
2024-03-05T05:36:15.706Z,288.2
2024-03-05T05:37:29.947Z,239.1
2024-03-05T05:38:44.240Z,247.2
2024-03-05T05:39:58.518Z,197.5
2024-03-05T05:41:12.783Z,203.3
2024-03-05T05:42:27.022Z,194.1
2024-03-05T05:43:41.246Z,182.7
2024-03-05T05:44:55.500Z,191.7
2024-03-05T05:46:09.739Z,171
2024-03-05T05:47:23.979Z,189.3
2024-03-05T05:48:38.218Z,168.8
2024-03-05T05:49:51.473Z,183.2
2024-03-05T05:51:05.712Z,184.4
2024-03-05T05:52:19.950Z,200.6
2024-03-05T05:53:34.190Z,186.9
2024-03-05T05:56:02.667Z,219.6
2024-03-05T05:57:16.906Z,222.5
2024-03-05T05:58:31.146Z,214.2
2024-03-05T05:59:45.385Z,237.4
2024-03-05T06:00:59.624Z,219.1
2024-03-05T06:02:13.851Z,229.1
2024-03-05T06:03:28.102Z,246.3
2024-03-05T06:04:42.341Z,228.7
2024-03-05T06:05:55.596Z,243.5
2024-03-05T06:07:09.836Z,223.2
2024-03-05T06:08:24.075Z,194.3
2024-03-05T06:10:52.555Z,218.3
2024-03-05T06:12:06.794Z,245.3
2024-03-05T06:13:21.034Z,240
2024-03-05T06:14:35.273Z,183.8
2024-03-05T06:15:49.513Z,162.3
2024-03-05T06:17:03.752Z,162
2024-03-05T06:18:17.991Z,169.7
2024-03-05T06:19:32.231Z,208.9
2024-03-05T06:20:46.470Z,182.7
2024-03-05T06:21:59.726Z,158.1
2024-03-05T06:23:13.947Z,191.2
2024-03-05T06:24:28.192Z,220.9
2024-03-05T06:25:42.444Z,200.4
2024-03-05T06:26:56.683Z,193.7
2024-03-05T06:28:10.922Z,175.7
2024-03-05T06:29:25.161Z,165.5
2024-03-05T06:30:39.400Z,167.7
2024-03-05T06:31:53.639Z,165.7
2024-03-05T06:33:07.878Z,156
2024-03-05T06:34:22.117Z,162.9
2024-03-05T06:35:36.353Z,167.1
2024-03-05T06:36:50.596Z,150.2
2024-03-05T06:38:03.851Z,150.6
2024-03-05T06:39:18.090Z,143
2024-03-05T06:40:32.330Z,140
2024-03-05T06:41:46.569Z,135.1
2024-03-05T06:43:00.808Z,134.9
2024-03-05T06:44:15.047Z,136.5
2024-03-05T06:45:29.287Z,135.2
2024-03-05T06:46:43.526Z,144.3
2024-03-05T06:47:57.745Z,133.9
2024-03-05T06:49:12.005Z,126.9
2024-03-05T06:50:26.245Z,124.4
2024-03-05T06:51:40.485Z,116.5
2024-03-05T06:52:54.724Z,114.7
2024-03-05T06:54:07.980Z,113.6
2024-03-05T06:55:22.199Z,104.7
2024-03-05T06:56:36.459Z,104.6
2024-03-05T06:57:50.698Z,90.1
2024-03-05T06:59:04.938Z,88.8
2024-03-05T07:00:19.177Z,92.3
2024-03-05T07:01:33.411Z,90.6
2024-03-05T07:02:47.657Z,88.4
2024-03-05T07:04:01.896Z,85.9
2024-03-05T07:05:16.136Z,87
2024-03-05T07:06:30.375Z,85.8
2024-03-05T07:07:44.615Z,86.3
2024-03-05T07:08:58.832Z,91.2
2024-03-05T07:10:12.110Z,89.6
2024-03-05T07:11:26.349Z,91.6
2024-03-05T07:12:40.584Z,90.3
2024-03-05T07:13:54.829Z,91
2024-03-05T07:15:09.068Z,83.8
2024-03-05T07:16:23.308Z,85.7
2024-03-05T07:17:37.547Z,86.2
2024-03-05T07:18:51.787Z,87.3
2024-03-05T07:20:06.026Z,81.7
2024-03-05T07:21:20.266Z,86.2
2024-03-05T07:22:34.499Z,79.8
2024-03-05T07:23:48.745Z,84.5
2024-03-05T07:25:02.973Z,81.8
2024-03-05T07:26:16.240Z,80.7
2024-03-05T07:27:30.480Z,88.7
2024-03-05T07:28:44.719Z,91.6
2024-03-05T07:29:58.959Z,92.6
2024-03-05T07:31:13.198Z,90.3
2024-03-05T07:32:27.438Z,95.7
2024-03-05T07:33:41.677Z,99.5
2024-03-05T07:34:55.917Z,88.2
2024-03-05T07:36:10.157Z,93.2
2024-03-05T07:37:24.396Z,88.7
2024-03-05T07:38:38.636Z,96.4
2024-03-05T07:39:52.875Z,97.4
2024-03-05T07:41:07.115Z,90.6
2024-03-05T07:42:20.371Z,88.4
2024-03-05T07:43:34.610Z,86.3
2024-03-05T07:44:48.850Z,84.9
2024-03-05T07:46:03.089Z,87.7
2024-03-05T07:47:17.316Z,89.5
2024-03-05T07:48:31.568Z,91
2024-03-05T07:49:45.804Z,79.7
2024-03-05T07:51:00.047Z,84
2024-03-05T07:52:14.287Z,84.7
2024-03-05T07:53:28.526Z,88.6
2024-03-05T07:54:42.766Z,84.4
2024-03-05T07:55:57.006Z,79.4
2024-03-05T07:57:11.245Z,88.3
2024-03-05T07:58:24.501Z,86.3
2024-03-05T07:59:38.735Z,80.3
2024-03-05T08:00:52.980Z,81.2
2024-03-05T08:02:07.201Z,88.9
2024-03-05T08:03:21.459Z,84.8
2024-03-05T08:04:34.720Z,89.8
2024-03-05T08:05:48.959Z,87.8
2024-03-05T08:07:03.199Z,81.5
2024-03-05T08:08:17.439Z,82.4
2024-03-05T08:09:31.665Z,89.2
2024-03-05T08:10:45.918Z,86.2
2024-03-05T08:12:00.157Z,84.4
2024-03-05T08:13:14.397Z,82
2024-03-05T08:14:28.615Z,87.2
2024-03-05T08:15:42.876Z,89.7
2024-03-05T08:16:57.115Z,87.8
2024-03-05T08:18:11.355Z,88.6
2024-03-05T08:19:25.595Z,89.9
2024-03-05T08:20:38.850Z,87.6
2024-03-05T08:21:53.090Z,84.2
2024-03-05T08:23:07.329Z,90
2024-03-05T08:24:21.555Z,90.6
2024-03-05T08:25:35.808Z,83.8
2024-03-05T08:26:50.025Z,90.4
2024-03-05T08:28:04.287Z,86.9
2024-03-05T08:29:18.527Z,85.6
2024-03-05T08:30:32.766Z,97.4
2024-03-05T08:31:47.006Z,86.1
2024-03-05T08:33:01.245Z,91.6
2024-03-05T08:34:15.483Z,93
2024-03-05T08:35:29.724Z,88.2
2024-03-05T08:36:42.980Z,86.1
2024-03-05T08:37:57.219Z,77.7
2024-03-05T08:39:11.445Z,80.4
2024-03-05T08:40:25.699Z,71.9
2024-03-05T08:41:39.938Z,69.3
2024-03-05T08:42:54.178Z,71.5
2024-03-05T08:44:08.417Z,73.4
2024-03-05T08:45:22.656Z,75.9
2024-03-05T08:46:36.896Z,76.1
2024-03-05T08:47:51.135Z,71.2
2024-03-05T08:49:05.375Z,72.6
2024-03-05T08:50:19.615Z,74.8
2024-03-05T08:51:33.848Z,74.5
2024-03-05T08:52:47.110Z,75.2
2024-03-05T08:54:01.349Z,69.9
2024-03-05T08:55:15.588Z,76.4
2024-03-05T08:56:29.828Z,76.2
2024-03-05T08:57:44.067Z,74
2024-03-05T08:58:58.307Z,68.9
2024-03-05T09:00:12.528Z,70.5
2024-03-05T09:01:26.777Z,68.7
2024-03-05T09:02:41.026Z,73.1
2024-03-05T09:03:55.265Z,69.7
2024-03-05T09:05:09.505Z,74.8
2024-03-05T09:06:23.724Z,70.7
2024-03-05T09:07:37.983Z,69.3
2024-03-05T09:08:51.239Z,86.2
2024-03-05T09:10:05.479Z,81.2
2024-03-05T09:11:19.718Z,68.9
2024-03-05T09:12:33.958Z,73.8
2024-03-05T09:13:48.197Z,74.9
2024-03-05T09:15:02.437Z,73.5
2024-03-05T09:16:16.670Z,73.3
2024-03-05T09:17:30.916Z,75.4
2024-03-05T09:18:45.155Z,78.9
2024-03-05T09:19:59.395Z,72.5
2024-03-05T09:21:13.635Z,79
2024-03-05T09:22:27.861Z,83.8
2024-03-05T09:23:42.114Z,89.8
2024-03-05T09:24:55.369Z,92.2
2024-03-05T09:26:09.609Z,93.5
2024-03-05T09:27:23.849Z,101.1
2024-03-05T09:28:38.088Z,91
2024-03-05T09:29:52.328Z,85.2
2024-03-05T09:31:06.567Z,84.2
2024-03-05T09:32:20.807Z,79.4
2024-03-05T09:33:35.027Z,76.4
2024-03-05T09:34:49.286Z,75.8
2024-03-05T09:36:03.517Z,72.7
2024-03-05T09:37:17.760Z,72.5
2024-03-05T09:38:32.005Z,74.6
2024-03-05T09:39:46.244Z,79
2024-03-05T09:40:59.500Z,75.2
2024-03-05T09:42:13.740Z,80.4
2024-03-05T09:43:27.979Z,83.3
2024-03-05T09:44:42.219Z,80.7
2024-03-05T09:45:56.459Z,80.5
2024-03-05T09:47:10.698Z,79.7
2024-03-05T09:48:24.938Z,84.8
2024-03-05T09:49:39.177Z,88.9
2024-03-05T09:50:53.417Z,80.4
2024-03-05T09:52:07.656Z,78.1
2024-03-05T09:53:21.885Z,79.7
2024-03-05T09:54:36.137Z,80.4
2024-03-05T09:55:50.376Z,82.2
2024-03-05T09:57:03.632Z,82.8
2024-03-05T09:58:17.871Z,81.9
2024-03-05T09:59:32.111Z,83.3
2024-03-05T10:00:46.350Z,80.2
2024-03-05T10:02:00.590Z,72.4
2024-03-05T10:03:14.829Z,78.1
2024-03-05T10:04:29.069Z,80.4
2024-03-05T10:05:43.308Z,75.3
2024-03-05T10:06:57.548Z,76.5
2024-03-05T10:08:11.788Z,79.5
2024-03-05T10:09:26.028Z,84.2
2024-03-05T10:10:40.267Z,75.9
2024-03-05T10:11:54.507Z,79.9
2024-03-05T10:13:07.762Z,76.6
2024-03-05T10:14:22.002Z,76.6
2024-03-05T10:15:36.241Z,79.2
2024-03-05T10:16:50.481Z,77
2024-03-05T10:18:04.706Z,80.7
2024-03-05T10:19:18.960Z,83.4
2024-03-05T10:20:33.200Z,75.9
2024-03-05T10:21:47.439Z,73.9
2024-03-05T10:23:01.678Z,72.2
2024-03-05T10:24:15.918Z,73.7
2024-03-05T10:25:30.139Z,75.3
2024-03-05T10:26:44.397Z,76.8
2024-03-05T10:27:58.637Z,75.6
2024-03-05T10:29:11.892Z,74.8
2024-03-05T10:30:26.131Z,77.2
2024-03-05T10:31:40.371Z,79.6
2024-03-05T10:32:54.611Z,77
2024-03-05T10:34:08.850Z,72.6
2024-03-05T10:35:23.090Z,74.2
2024-03-05T10:36:37.329Z,72.4
2024-03-05T10:37:51.570Z,76.6
2024-03-05T10:39:05.810Z,78.3
2024-03-05T10:40:20.049Z,82.6
2024-03-05T10:41:34.289Z,71
2024-03-05T10:42:48.509Z,72.8
2024-03-05T10:44:02.768Z,71.9
2024-03-05T10:45:16.023Z,69.1
2024-03-05T10:46:30.263Z,75.4
2024-03-05T10:47:44.502Z,72
2024-03-05T10:48:58.742Z,70.1
2024-03-05T10:50:12.982Z,77.2
2024-03-05T10:51:27.219Z,77.5
2024-03-05T10:52:41.461Z,77.9
2024-03-05T10:53:55.700Z,73.8
2024-03-05T10:55:09.940Z,82.3
2024-03-05T10:56:24.179Z,78.2
2024-03-05T10:57:38.419Z,74.3
2024-03-05T10:58:52.659Z,75.2
2024-03-05T11:00:06.898Z,78.4
2024-03-05T11:01:20.154Z,75.2
2024-03-05T11:02:34.394Z,72.4
2024-03-05T11:03:48.633Z,68.4
2024-03-05T11:05:02.873Z,64.3
2024-03-05T11:06:17.106Z,68.7
2024-03-05T11:07:31.352Z,63.4
2024-03-05T11:08:45.591Z,62.1
2024-03-05T11:09:59.831Z,63.9
2024-03-05T11:11:14.070Z,64.3
2024-03-05T11:12:28.310Z,61.8
2024-03-05T11:13:42.540Z,64.8
2024-03-05T11:14:56.789Z,65.9
2024-03-05T11:16:11.029Z,60.6
2024-03-05T11:17:24.284Z,62
2024-03-05T11:18:38.524Z,64.1
2024-03-05T11:19:52.763Z,61.8
2024-03-05T11:21:06.994Z,60.7
2024-03-05T11:22:21.243Z,66.7
2024-03-05T11:23:35.482Z,67.2
2024-03-05T11:24:49.722Z,67.7
2024-03-05T11:26:03.961Z,66.7
2024-03-05T11:27:18.201Z,66.5
2024-03-05T11:28:32.420Z,66.3
2024-03-05T11:29:46.680Z,66.7
2024-03-05T11:31:00.920Z,68.3
2024-03-05T11:32:15.159Z,65.1
2024-03-05T11:33:28.415Z,67
2024-03-05T11:34:42.637Z,66.2
2024-03-05T11:35:56.000Z,69
2024-03-05T11:37:11.133Z,65.3
2024-03-05T11:38:25.373Z,62
2024-03-05T11:39:39.612Z,63.7
2024-03-05T11:40:53.852Z,65.3
2024-03-05T11:42:08.092Z,69.3
2024-03-05T11:43:22.321Z,65
2024-03-05T11:44:36.571Z,62.8
2024-03-05T11:45:50.810Z,60.5
2024-03-05T11:47:05.050Z,60.6
2024-03-05T11:48:19.289Z,59.1
2024-03-05T11:49:32.545Z,58.2
2024-03-05T11:50:46.784Z,59.7
2024-03-05T11:52:01.024Z,61.3
2024-03-05T11:53:15.264Z,59.2
2024-03-05T11:54:29.503Z,62.9
2024-03-05T11:55:43.743Z,63.5
2024-03-05T11:56:57.961Z,64.4
2024-03-05T11:58:12.222Z,72.7
2024-03-05T11:59:26.461Z,71
2024-03-05T12:00:40.701Z,63.6
2024-03-05T12:01:54.941Z,67.6
2024-03-05T12:03:09.180Z,77.2
2024-03-05T12:04:23.420Z,68.8
2024-03-05T12:05:36.676Z,73
2024-03-05T12:06:50.915Z,68.1
2024-03-05T12:08:05.155Z,66.8
2024-03-05T12:09:19.394Z,69.9
2024-03-05T12:10:33.633Z,67.5
2024-03-05T12:11:47.873Z,65.7
2024-03-05T12:13:01.133Z,73.2
2024-03-05T12:14:15.372Z,69.5
2024-03-05T12:15:29.611Z,66.8
2024-03-05T12:16:43.852Z,67.1
2024-03-05T12:17:58.091Z,67.7
2024-03-05T12:19:12.330Z,64.6
2024-03-05T12:20:26.570Z,63.5
2024-03-05T12:21:40.809Z,66.8
2024-03-05T12:22:55.049Z,67.4
2024-03-05T12:24:09.288Z,63.8
2024-03-05T12:25:23.527Z,62.7
2024-03-05T12:26:37.768Z,62.9
2024-03-05T12:27:52.007Z,62
2024-03-05T12:29:05.262Z,65
2024-03-05T12:30:19.502Z,64
2024-03-05T12:31:33.728Z,62.3
2024-03-05T12:32:47.981Z,62.2
2024-03-05T12:34:02.220Z,62.3
2024-03-05T12:36:30.699Z,64.3
2024-03-05T12:37:44.939Z,63.6
2024-03-05T12:38:59.178Z,61.3
2024-03-05T12:40:13.413Z,66.7
2024-03-05T12:41:27.657Z,61
2024-03-05T12:42:41.897Z,62.5
2024-03-05T12:43:56.130Z,62.5
2024-03-05T12:45:09.392Z,62
2024-03-05T12:46:23.615Z,62.6
2024-03-05T12:47:37.871Z,62.3
2024-03-05T12:48:52.111Z,60.7
2024-03-05T12:50:06.351Z,62.6
2024-03-05T12:51:20.590Z,66.8
2024-03-05T12:52:34.830Z,63.6
2024-03-05T12:53:49.069Z,64.1
2024-03-05T12:55:03.309Z,65.1
2024-03-05T12:56:17.548Z,66.4
2024-03-05T12:57:31.775Z,66.7
2024-03-05T12:58:46.027Z,66.1
2024-03-05T13:00:00.267Z,68.9
2024-03-05T13:01:13.522Z,67.6
2024-03-05T13:02:27.761Z,64
2024-03-05T13:03:42.001Z,60.6
2024-03-05T13:04:56.240Z,63.9
2024-03-05T13:06:10.480Z,59.9
2024-03-05T13:07:24.719Z,63.4
2024-03-05T13:08:38.959Z,62.3
2024-03-05T13:09:53.199Z,62.9
2024-03-05T13:11:07.438Z,64.1
2024-03-05T13:12:21.678Z,63.8
2024-03-05T13:13:35.918Z,64
2024-03-05T13:14:50.157Z,63.9
2024-03-05T13:16:04.397Z,65.1
2024-03-05T13:17:17.652Z,62
2024-03-05T13:18:31.891Z,64.9
2024-03-05T13:19:46.130Z,63.4
2024-03-05T13:21:00.370Z,65.1
2024-03-05T13:22:14.609Z,67.2
2024-03-05T13:23:28.849Z,62.6
2024-03-05T13:24:43.088Z,64.4
2024-03-05T13:25:57.328Z,62.7
2024-03-05T13:27:11.567Z,61.4
2024-03-05T13:28:25.807Z,53.8
2024-03-05T13:29:40.046Z,60
2024-03-05T13:30:54.285Z,62
2024-03-05T13:32:08.525Z,55.7
2024-03-05T13:33:21.781Z,59.6
2024-03-05T13:34:36.020Z,52.6
2024-03-05T13:35:50.259Z,51.6
2024-03-05T13:37:04.500Z,52.1
2024-03-05T13:38:18.739Z,51.1
2024-03-05T13:39:32.979Z,55
2024-03-05T13:40:47.219Z,51.8
2024-03-05T13:42:01.458Z,52.2
2024-03-05T13:43:15.680Z,50.2
2024-03-05T13:44:29.937Z,50.7
2024-03-05T13:45:44.177Z,48.8
2024-03-05T13:46:58.416Z,51
2024-03-05T13:48:12.656Z,51.8
2024-03-05T13:49:25.911Z,47.7
2024-03-05T13:50:40.151Z,46.2
2024-03-05T13:51:54.391Z,49.8
2024-03-05T13:53:08.631Z,49.6
2024-03-05T13:54:22.870Z,57.7
2024-03-05T13:55:37.110Z,50.1
2024-03-05T13:56:51.349Z,50.3
2024-03-05T13:58:05.589Z,53.5
2024-03-05T13:59:19.829Z,49.5
2024-03-05T14:00:34.068Z,51.7
2024-03-05T14:01:48.308Z,46.1
2024-03-05T14:03:02.548Z,44.6
2024-03-05T14:04:16.787Z,47.7
2024-03-05T14:05:30.043Z,46
2024-03-05T14:06:44.283Z,47
2024-03-05T14:09:12.762Z,47.7
2024-03-05T14:10:27.002Z,44.5
2024-03-05T14:11:41.241Z,46.6
2024-03-05T14:12:55.481Z,45.2
2024-03-05T14:14:09.721Z,51.3
2024-03-05T14:15:23.958Z,48.1
2024-03-05T14:16:38.200Z,51
2024-03-05T14:17:52.440Z,48.1
2024-03-05T14:19:06.679Z,46.6
2024-03-05T14:20:20.919Z,44.8
2024-03-05T14:21:34.175Z,44.4
2024-03-05T14:22:48.414Z,43.7
2024-03-05T14:24:02.654Z,43.5
2024-03-05T14:25:16.894Z,40.9
2024-03-05T14:26:31.134Z,40.3
2024-03-05T14:27:45.373Z,40.1
2024-03-05T14:28:59.613Z,44.5
2024-03-05T14:30:13.853Z,42.2
2024-03-05T14:31:28.092Z,45.2
2024-03-05T14:32:42.333Z,44.8
2024-03-05T14:33:56.568Z,40.3
2024-03-05T14:35:10.813Z,39.5
2024-03-05T14:36:25.052Z,42.3
2024-03-05T14:37:38.308Z,37.3
2024-03-05T14:38:52.548Z,36
2024-03-05T14:40:06.771Z,35.2
2024-03-05T14:41:21.027Z,35.8
2024-03-05T14:42:35.267Z,39.5
2024-03-05T14:43:49.488Z,40
2024-03-05T14:45:03.746Z,39.8
2024-03-05T14:46:17.986Z,38
2024-03-05T14:47:32.226Z,40.7
2024-03-05T14:48:46.466Z,40.1
2024-03-05T14:50:00.705Z,39.9
2024-03-05T14:51:14.945Z,36.5
2024-03-05T14:52:29.184Z,39.6
2024-03-05T14:53:42.440Z,39.5
2024-03-05T14:54:56.680Z,39.2
2024-03-05T14:56:10.920Z,37.9
2024-03-05T14:57:25.160Z,43.3
2024-03-05T14:58:39.399Z,45.8
2024-03-05T14:59:53.639Z,40.7
2024-03-05T15:01:07.879Z,41.8
2024-03-05T15:02:22.101Z,42
2024-03-05T15:03:36.358Z,39.7
2024-03-05T15:04:50.599Z,37.2
2024-03-05T15:06:04.839Z,39.5
2024-03-05T15:07:19.078Z,39.7
2024-03-05T15:08:33.318Z,39.3
2024-03-05T15:09:46.574Z,43.6
2024-03-05T15:11:00.813Z,39.3
2024-03-05T15:12:15.053Z,38.5
2024-03-05T15:13:29.293Z,42.9
2024-03-05T15:14:43.532Z,42.9
2024-03-05T15:15:57.772Z,43.4
2024-03-05T15:17:12.012Z,41.1
2024-03-05T15:18:26.252Z,44.9
2024-03-05T15:19:40.491Z,41.3
2024-03-05T15:20:54.731Z,40.2
2024-03-05T15:22:08.971Z,42.8
2024-03-05T15:23:23.210Z,40.3
2024-03-05T15:24:37.450Z,41.7
2024-03-05T15:25:50.705Z,40.9
2024-03-05T15:27:04.945Z,42.8
2024-03-05T15:28:19.185Z,43.3
2024-03-05T15:29:33.425Z,43.2
2024-03-05T15:30:47.664Z,38.7
2024-03-05T15:32:01.904Z,35.1
2024-03-05T15:33:16.145Z,37.1
2024-03-05T15:34:30.384Z,36.5
2024-03-05T15:35:44.624Z,39.2
2024-03-05T15:36:58.864Z,39.5
2024-03-05T15:38:13.104Z,36.1
2024-03-05T15:39:27.343Z,39.3
2024-03-05T15:40:41.570Z,39
2024-03-05T15:41:54.839Z,42.1
2024-03-05T15:43:09.078Z,39.6
2024-03-05T15:44:23.318Z,38.5
2024-03-05T15:45:37.558Z,40.6
2024-03-05T15:46:51.781Z,44.1
2024-03-05T15:48:06.038Z,44.5
2024-03-05T15:49:20.278Z,44.2
2024-03-05T15:50:34.518Z,42.8
2024-03-05T15:51:48.757Z,38.1
2024-03-05T15:53:02.997Z,42.1
2024-03-05T15:54:17.237Z,37.6
2024-03-05T15:55:31.476Z,42.9
2024-03-05T15:56:45.716Z,42.2
2024-03-05T15:57:58.972Z,43.8
2024-03-05T15:59:13.211Z,45.7
2024-03-05T16:00:27.451Z,44
2024-03-05T16:01:41.691Z,44.9
2024-03-05T16:02:55.930Z,46.1
2024-03-05T16:04:10.170Z,46.1
2024-03-05T16:05:24.410Z,46.4
2024-03-05T16:06:38.650Z,48.2
2024-03-05T16:07:52.889Z,40.6
2024-03-05T16:09:07.129Z,43.9
2024-03-05T16:10:21.369Z,43.6
2024-03-05T16:11:35.608Z,45.9
2024-03-05T16:12:49.848Z,40.6
2024-03-05T16:14:03.104Z,42.2
2024-03-05T16:15:17.343Z,44.1
2024-03-05T16:16:31.583Z,37.9
2024-03-05T16:17:45.823Z,41.9
2024-03-05T16:19:00.062Z,39.4
2024-03-05T16:20:14.295Z,41.7
2024-03-05T16:21:27.563Z,42.2
2024-03-05T16:22:41.803Z,38.5
2024-03-05T16:23:56.043Z,41.2
2024-03-05T16:25:10.282Z,38.1